New Haven, Connecticut
Current Conditions -  °F | °C
As of 7:00 AM on Thursday 23 Oct 2014 (Local Time) from KHVN Reporting Station
Overcast Overcast  
Wind Chill: 12°   Ceiling: 2000
Heat Index: 12°   Visibility: 10mi
Dew Point:   Wind: 21mph
Humidity: 80%   Direction: 360°N
Pressure: 29.62"   Gusts: 31mph
Location:  41.31°N, 72.92°W
Report Text: KHVN 231100Z 36018G27KT 10SM OVC020 12/08 A2962 RMK AO2 PK WND 36027/1056 T01170083
Loading
Personal Weather Stations






























Interactive Weather Map
Tropical Storm Tracking
New forecast layout! Learn more

10-Day Weather Forecast

Advertisements
Track Severe Weather on mobile